Time;durP1;ratioP1;P1;durP2;ratioP2;P2;SDS_P1;SDS_P2;PMS_P1;PMS_P2;Temp;Humidity;BMP_temperature;BMP_pressure;BME280_temperature;BME280_humidity;BME280_pressure;Samples;Min_cycle;Max_cycle;Signal;HPM_P1;HPM_P2
2022/01/05 00:00:34;;;;;;;1.00;0.50;;;22.20;33.00;;;;;;5054342;28;20025;-53
2022/01/05 00:03:00;;;;;;;1.65;0.60;;;22.20;33.00;;;;;;5041857;28;20336;-59
2022/01/05 00:05:26;;;;;;;1.42;0.55;;;22.20;32.90;;;;;;5035971;28;20021;-56
2022/01/05 00:07:52;;;;;;;1.70;0.60;;;22.20;32.90;;;;;;5036116;28;20412;-57
2022/01/05 00:10:18;;;;;;;0.80;0.50;;;22.20;32.80;;;;;;5036060;28;20030;-57
2022/01/05 00:12:43;;;;;;;0.82;0.50;;;22.20;32.80;;;;;;5049604;28;20124;-57
2022/01/05 00:15:09;;;;;;;1.42;0.55;;;22.20;32.80;;;;;;5048151;28;20028;-55
2022/01/05 00:17:35;;;;;;;1.13;0.50;;;22.20;32.80;;;;;;5047359;28;20031;-54
2022/01/05 00:20:02;;;;;;;1.95;0.70;;;22.20;32.80;;;;;;5053141;28;20516;-58
2022/01/05 00:22:28;;;;;;;1.80;0.70;;;22.20;32.70;;;;;;5054584;28;20020;-57
2022/01/05 00:24:54;;;;;;;2.17;0.70;;;22.10;32.70;;;;;;5053937;28;20111;-55
2022/01/05 00:27:20;;;;;;;2.03;0.70;;;22.20;32.60;;;;;;5054278;28;20035;-54
2022/01/05 00:29:46;;;;;;;1.52;0.77;;;22.10;32.60;;;;;;5054090;28;20112;-56
2022/01/05 00:32:12;;;;;;;1.83;0.60;;;22.10;32.50;;;;;;5054424;28;20562;-56
2022/01/05 00:34:38;;;;;;;2.15;0.75;;;22.20;32.50;;;;;;5054203;28;20041;-55
2022/01/05 00:37:04;;;;;;;1.83;0.70;;;22.20;32.50;;;;;;5054393;28;20036;-54
2022/01/05 00:39:30;;;;;;;2.60;0.70;;;22.10;32.50;;;;;;5053027;28;20467;-55
2022/01/05 00:41:55;;;;;;;2.03;0.82;;;22.20;32.50;;;;;;5053632;28;20016;-57
2022/01/05 00:44:21;;;;;;;1.17;0.73;;;22.10;32.40;;;;;;5054022;28;20021;-57
2022/01/05 00:46:47;;;;;;;1.77;0.80;;;22.10;32.40;;;;;;5051064;28;20408;-53
2022/01/05 00:49:13;;;;;;;1.05;0.57;;;22.10;32.40;;;;;;5053122;28;20032;-55
2022/01/05 00:51:39;;;;;;;2.20;0.80;;;22.10;32.40;;;;;;5053760;28;20382;-49
2022/01/05 00:54:06;;;;;;;2.38;0.80;;;22.00;32.30;;;;;;5053336;28;20103;-58
2022/01/05 00:56:32;;;;;;;1.48;0.60;;;22.10;32.30;;;;;;5053543;28;20031;-55
2022/01/05 00:58:58;;;;;;;1.88;0.82;;;22.10;32.30;;;;;;5053185;28;20371;-58
2022/01/05 01:01:24;;;;;;;1.08;0.65;;;22.00;32.40;;;;;;5053028;28;20112;-55
2022/01/05 01:03:49;;;;;;;1.83;0.68;;;22.00;32.50;;;;;;5053112;28;20375;-57
2022/01/05 01:06:16;;;;;;;2.30;0.88;;;22.00;32.50;;;;;;5053714;28;20021;-58
2022/01/05 01:08:41;;;;;;;2.45;0.88;;;22.00;32.50;;;;;;5053577;28;20025;-51
2022/01/05 01:11:07;;;;;;;1.63;0.63;;;22.00;32.50;;;;;;5050572;28;20036;-56
2022/01/05 01:13:33;;;;;;;1.17;0.60;;;22.00;32.40;;;;;;5053148;28;20116;-50
2022/01/05 01:15:59;;;;;;;2.13;0.75;;;22.00;32.40;;;;;;5053192;28;20124;-56
2022/01/05 01:18:25;;;;;;;2.00;0.60;;;22.00;32.30;;;;;;5053261;28;20087;-52
2022/01/05 01:20:51;;;;;;;0.93;0.60;;;22.00;32.30;;;;;;5053249;28;20463;-55
2022/01/05 01:23:20;;;;;;;1.67;0.77;;;22.00;32.20;;;;;;5053172;28;20025;-58
2022/01/05 01:25:47;;;;;;;2.13;0.82;;;22.00;32.20;;;;;;5053305;28;20048;-57
2022/01/05 01:28:12;;;;;;;1.45;0.80;;;22.00;32.20;;;;;;5052211;28;20321;-57
2022/01/05 01:30:38;;;;;;;1.33;0.75;;;22.00;32.20;;;;;;5052737;28;20031;-55
2022/01/05 01:33:04;;;;;;;1.35;0.60;;;21.90;32.10;;;;;;5053114;28;20025;-57
2022/01/05 01:35:30;;;;;;;0.80;0.50;;;21.90;32.10;;;;;;5052753;28;20047;-54
2022/01/05 01:37:56;;;;;;;1.40;0.60;;;21.90;32.10;;;;;;5052698;28;20017;-55
2022/01/05 01:40:23;;;;;;;1.27;0.50;;;21.90;32.10;;;;;;5052698;28;20496;-57
2022/01/05 01:42:49;;;;;;;2.67;0.93;;;21.90;32.10;;;;;;5050665;28;20028;-55
2022/01/05 01:45:15;;;;;;;2.53;0.80;;;21.90;32.00;;;;;;5052380;28;20024;-52
2022/01/05 01:47:41;;;;;;;1.70;0.70;;;21.90;32.00;;;;;;5053147;28;20029;-52
2022/01/05 01:50:08;;;;;;;1.73;0.60;;;21.90;32.00;;;;;;5052326;28;20029;-56
2022/01/05 01:52:34;;;;;;;1.77;0.70;;;21.90;31.90;;;;;;5053308;28;20029;-56
2022/01/05 01:55:01;;;;;;;1.85;0.75;;;21.90;31.90;;;;;;5052318;28;20041;-55
2022/01/05 01:57:28;;;;;;;1.25;0.63;;;21.90;31.90;;;;;;5035459;28;20111;-56
2022/01/05 01:59:58;;;;;;;1.75;0.80;;;21.90;31.80;;;;;;5052195;28;20045;-56
2022/01/05 02:02:24;;;;;;;2.30;0.60;;;21.90;31.80;;;;;;5052373;28;20448;-57
2022/01/05 02:04:50;;;;;;;1.60;0.60;;;21.90;31.80;;;;;;5052830;28;20021;-55
2022/01/05 02:07:16;;;;;;;1.88;0.55;;;21.90;31.80;;;;;;5052735;28;20013;-54
2022/01/05 02:09:42;;;;;;;2.63;0.77;;;21.90;31.70;;;;;;5052879;28;20017;-53
2022/01/05 02:12:08;;;;;;;2.22;0.70;;;21.90;31.70;;;;;;5051598;28;20027;-58
2022/01/05 02:14:34;;;;;;;4.45;0.90;;;21.80;31.60;;;;;;5052691;28;20166;-53
2022/01/05 02:17:08;;;;;;;1.55;0.70;;;21.80;31.60;;;;;;5052491;28;20025;-59
2022/01/05 02:19:35;;;;;;;1.42;0.70;;;21.80;31.60;;;;;;5052149;28;20036;-52
2022/01/05 02:22:01;;;;;;;0.95;0.43;;;21.80;31.60;;;;;;5053065;28;20087;-58
2022/01/05 02:24:27;;;;;;;1.80;0.70;;;21.80;31.60;;;;;;5052812;28;20053;-57
2022/01/05 02:26:53;;;;;;;1.58;0.70;;;21.80;31.60;;;;;;5052846;28;20056;-54
2022/01/05 02:29:19;;;;;;;2.17;0.75;;;21.80;31.50;;;;;;5051960;28;20065;-52
2022/01/05 02:31:44;;;;;;;1.63;0.65;;;21.80;31.50;;;;;;5052978;28;20432;-56
2022/01/05 02:34:10;;;;;;;2.03;0.60;;;21.80;31.50;;;;;;5052505;28;20032;-55
2022/01/05 02:36:36;;;;;;;2.47;0.60;;;21.80;31.50;;;;;;5053230;28;20103;-55
2022/01/05 02:39:03;;;;;;;1.20;0.63;;;21.80;31.50;;;;;;5052202;28;20091;-57
2022/01/05 02:41:28;;;;;;;1.83;0.73;;;21.80;31.50;;;;;;5055763;28;20483;-52
2022/01/05 02:43:54;;;;;;;1.33;0.65;;;21.80;31.50;;;;;;5056446;28;20108;-54
2022/01/05 02:46:22;;;;;;;1.58;0.70;;;21.80;31.50;;;;;;5055798;28;20025;-54
2022/01/05 02:48:51;;;;;;;1.25;0.50;;;21.80;31.50;;;;;;5056224;28;20041;-55
2022/01/05 02:51:18;;;;;;;1.38;0.60;;;21.80;31.40;;;;;;5056182;28;20021;-52
2022/01/05 02:53:44;;;;;;;2.78;0.60;;;21.70;31.40;;;;;;5055828;28;20086;-55
2022/01/05 02:56:09;;;;;;;1.88;0.57;;;21.70;31.40;;;;;;5055432;28;20033;-56
2022/01/05 02:58:36;;;;;;;1.23;0.60;;;21.70;31.40;;;;;;5055743;28;20040;-54
2022/01/05 03:01:02;;;;;;;2.75;0.75;;;21.70;31.40;;;;;;5055971;28;20028;-55
2022/01/05 03:03:28;;;;;;;4.28;0.80;;;21.70;31.40;;;;;;5056045;28;20021;-59
2022/01/05 03:05:54;;;;;;;1.35;0.60;;;21.70;31.30;;;;;;5055144;28;20033;-53
2022/01/05 03:08:20;;;;;;;1.90;0.80;;;21.70;31.30;;;;;;5055930;28;20083;-51
2022/01/05 03:10:46;;;;;;;2.20;0.90;;;21.70;31.30;;;;;;5051890;28;20124;-54
2022/01/05 03:13:11;;;;;;;2.80;0.80;;;21.70;31.30;;;;;;5055510;28;20020;-58
2022/01/05 03:15:37;;;;;;;1.73;0.73;;;21.70;31.30;;;;;;5055424;28;20155;-58
2022/01/05 03:18:04;;;;;;;2.15;0.90;;;21.70;31.30;;;;;;5055820;28;20306;-53
2022/01/05 03:20:30;;;;;;;1.13;0.63;;;21.70;31.20;;;;;;5054595;28;20025;-58
2022/01/05 03:22:57;;;;;;;2.65;0.80;;;21.70;31.20;;;;;;5055731;28;20110;-55
2022/01/05 03:25:23;;;;;;;1.95;0.63;;;21.70;31.20;;;;;;5055183;28;20339;-55
2022/01/05 03:27:50;;;;;;;2.70;0.70;;;21.70;31.20;;;;;;5038030;28;20033;-55
2022/01/05 03:30:19;;;;;;;2.33;0.70;;;21.70;31.20;;;;;;5052579;28;20127;-57
2022/01/05 03:33:09;;;;;;;2.35;1.00;;;21.60;31.10;;;;;;5038003;28;20358;-54
2022/01/05 03:35:37;;;;;;;3.33;0.82;;;21.60;31.10;;;;;;5054150;28;20440;-57
2022/01/05 03:38:04;;;;;;;2.05;0.88;;;21.60;31.10;;;;;;5055196;28;20040;-57
2022/01/05 03:40:30;;;;;;;1.98;1.00;;;21.60;31.10;;;;;;5055413;28;20033;-52
2022/01/05 03:42:57;;;;;;;2.30;0.70;;;21.60;31.10;;;;;;5055059;28;20394;-51
2022/01/05 03:45:22;;;;;;;1.60;0.73;;;21.60;31.00;;;;;;5055106;28;20021;-57
2022/01/05 03:47:49;;;;;;;2.47;0.70;;;21.60;31.00;;;;;;5054746;28;20108;-54
2022/01/05 03:50:14;;;;;;;1.15;0.63;;;21.60;31.00;;;;;;5055317;28;20021;-57
2022/01/05 03:52:40;;;;;;;1.35;0.63;;;21.60;31.00;;;;;;5054000;28;20433;-56
2022/01/05 03:55:07;;;;;;;1.38;0.63;;;21.60;31.00;;;;;;5037038;28;20041;-57
2022/01/05 03:57:33;;;;;;;0.80;0.50;;;21.60;31.00;;;;;;5055081;28;20044;-55
2022/01/05 03:59:59;;;;;;;3.17;0.73;;;21.50;30.90;;;;;;5055145;28;20067;-57
2022/01/05 04:02:26;;;;;;;1.30;0.50;;;21.50;30.90;;;;;;5037083;28;20043;-57
2022/01/05 04:04:51;;;;;;;2.35;0.98;;;21.50;30.90;;;;;;5052185;28;20027;-54
2022/01/05 04:07:17;;;;;;;1.58;0.77;;;21.50;30.90;;;;;;5054553;28;20021;-54
2022/01/05 04:09:44;;;;;;;1.23;0.60;;;21.50;30.90;;;;;;5054798;28;20017;-53
2022/01/05 04:12:10;;;;;;;1.27;0.63;;;21.50;30.90;;;;;;5054584;28;20298;-56
2022/01/05 04:14:36;;;;;;;2.00;0.80;;;21.50;30.90;;;;;;5054263;28;20013;-57
2022/01/05 04:17:02;;;;;;;1.60;0.60;;;21.50;30.90;;;;;;5054633;28;20442;-54
2022/01/05 04:19:28;;;;;;;2.25;0.70;;;21.50;30.90;;;;;;5054132;28;20040;-57
2022/01/05 04:21:53;;;;;;;1.95;0.70;;;21.50;30.90;;;;;;5054193;28;20033;-58
2022/01/05 04:24:19;;;;;;;1.73;0.85;;;21.50;30.90;;;;;;5054467;28;20029;-57
2022/01/05 04:26:45;;;;;;;1.90;0.70;;;21.50;31.50;;;;;;5053981;28;20107;-57
2022/01/05 04:29:11;;;;;;;2.15;0.70;;;21.50;30.90;;;;;;5054638;28;20021;-56
2022/01/05 04:31:37;;;;;;;1.83;0.90;;;21.50;30.90;;;;;;5054050;28;20029;-55
2022/01/05 04:34:02;;;;;;;2.40;0.93;;;21.50;30.90;;;;;;5054121;28;20310;-55
2022/01/05 04:36:28;;;;;;;1.58;0.82;;;21.40;30.80;;;;;;5053675;28;20017;-58
2022/01/05 04:38:54;;;;;;;1.63;0.75;;;21.50;30.90;;;;;;5054450;28;20099;-54
2022/01/05 04:41:20;;;;;;;2.67;0.80;;;21.40;30.90;;;;;;5019687;28;20024;-56
2022/01/05 04:43:46;;;;;;;3.17;1.13;;;21.40;30.90;;;;;;5035850;28;20101;-56
2022/01/05 04:46:11;;;;;;;1.20;0.73;;;21.50;30.90;;;;;;5053028;28;20048;-55
2022/01/05 04:48:37;;;;;;;2.22;0.80;;;21.40;30.90;;;;;;5054238;28;20165;-53
2022/01/05 04:51:03;;;;;;;1.58;0.82;;;21.40;30.80;;;;;;5052993;28;20032;-53
2022/01/05 04:53:29;;;;;;;2.58;1.05;;;21.40;30.80;;;;;;5050510;28;20016;-55
2022/01/05 04:55:55;;;;;;;2.25;0.77;;;21.40;30.80;;;;;;5040274;28;20048;-52
2022/01/05 04:58:21;;;;;;;0.93;0.55;;;21.40;30.90;;;;;;5043005;28;20498;-54
2022/01/05 05:00:47;;;;;;;1.35;0.80;;;21.40;30.80;;;;;;5036527;28;20037;-56
2022/01/05 05:03:13;;;;;;;1.58;0.77;;;21.40;30.80;;;;;;5042310;28;20078;-57
2022/01/05 05:05:39;;;;;;;1.75;0.80;;;21.40;30.80;;;;;;5036602;28;20603;-59
2022/01/05 05:08:05;;;;;;;2.35;1.00;;;21.40;30.80;;;;;;5042679;28;20399;-58
2022/01/05 05:10:31;;;;;;;2.22;1.08;;;21.40;30.80;;;;;;5036212;28;20049;-57
2022/01/05 05:12:57;;;;;;;1.60;0.80;;;21.40;30.80;;;;;;5027430;28;20082;-55
2022/01/05 05:15:23;;;;;;;1.48;0.60;;;21.40;30.80;;;;;;5053164;28;20382;-55
2022/01/05 05:17:49;;;;;;;2.90;1.08;;;21.40;30.80;;;;;;5052787;28;20035;-55
2022/01/05 05:20:15;;;;;;;2.17;0.88;;;21.40;30.80;;;;;;5053278;28;20029;-55
2022/01/05 05:22:41;;;;;;;1.83;0.65;;;21.40;30.90;;;;;;5053123;28;20020;-55
2022/01/05 05:25:08;;;;;;;1.88;0.70;;;21.40;30.90;;;;;;5053326;28;20442;-49
2022/01/05 05:27:33;;;;;;;2.72;0.70;;;21.30;30.80;;;;;;5053311;28;20036;-54
2022/01/05 05:29:59;;;;;;;2.80;0.88;;;21.40;30.90;;;;;;5052637;28;20332;-54
2022/01/05 05:32:25;;;;;;;1.98;0.88;;;21.30;30.80;;;;;;5053104;28;20021;-58
2022/01/05 05:34:51;;;;;;;1.63;0.80;;;21.40;30.80;;;;;;5053211;28;20032;-54
2022/01/05 05:37:16;;;;;;;2.03;1.00;;;21.40;30.90;;;;;;5053310;28;20096;-55
2022/01/05 05:39:43;;;;;;;3.38;1.10;;;21.30;30.80;;;;;;5052889;28;20029;-58
2022/01/05 05:42:09;;;;;;;3.03;1.05;;;21.30;30.80;;;;;;5053293;28;20048;-54
2022/01/05 05:44:35;;;;;;;2.53;0.90;;;21.30;30.80;;;;;;5053169;28;20041;-58
2022/01/05 05:47:02;;;;;;;2.78;1.10;;;21.30;30.80;;;;;;5052799;28;20024;-56
2022/01/05 05:49:28;;;;;;;2.22;1.10;;;21.30;30.80;;;;;;5052753;28;20083;-53
2022/01/05 05:51:54;;;;;;;1.70;0.75;;;21.30;30.80;;;;;;5049239;28;20348;-52
2022/01/05 05:54:20;;;;;;;2.47;0.88;;;21.30;30.90;;;;;;5053372;28;20017;-56
2022/01/05 05:56:45;;;;;;;2.25;0.93;;;21.30;30.90;;;;;;5051884;28;20063;-54
2022/01/05 05:59:11;;;;;;;2.10;1.00;;;21.30;30.90;;;;;;5052803;28;20033;-54
2022/01/05 06:01:37;;;;;;;2.50;0.93;;;21.30;30.90;;;;;;5052986;28;20417;-49
2022/01/05 06:04:03;;;;;;;2.22;0.90;;;21.30;30.90;;;;;;5052527;28;20040;-52
2022/01/05 06:06:28;;;;;;;3.88;1.08;;;21.30;30.90;;;;;;5052649;28;20021;-54
2022/01/05 06:08:55;;;;;;;1.73;0.80;;;21.30;31.00;;;;;;5052900;28;20435;-54
2022/01/05 06:11:21;;;;;;;2.13;1.02;;;21.30;31.00;;;;;;5051993;28;20060;-55
2022/01/05 06:13:47;;;;;;;2.38;0.93;;;21.30;31.00;;;;;;5051594;28;20134;-51
2022/01/05 06:16:13;;;;;;;2.08;0.88;;;21.30;31.00;;;;;;5055678;28;20151;-56
2022/01/05 06:18:39;;;;;;;2.22;1.00;;;21.30;31.00;;;;;;5056055;28;20128;-55
2022/01/05 06:21:05;;;;;;;1.77;0.90;;;21.30;31.00;;;;;;5056393;28;20020;-54
2022/01/05 06:23:30;;;;;;;2.00;0.93;;;21.20;31.00;;;;;;5056245;28;20013;-56
2022/01/05 06:25:56;;;;;;;2.25;0.82;;;21.20;31.00;;;;;;5038998;28;20451;-54
2022/01/05 06:28:22;;;;;;;2.45;0.80;;;21.20;31.00;;;;;;5038282;28;20565;-57
2022/01/05 06:30:48;;;;;;;1.88;0.80;;;21.20;31.00;;;;;;5056671;28;20029;-54
2022/01/05 06:33:13;;;;;;;2.78;0.85;;;21.20;31.00;;;;;;5056071;28;20017;-52
2022/01/05 06:35:39;;;;;;;2.70;0.95;;;21.20;31.00;;;;;;5056132;28;20028;-51
2022/01/05 06:38:05;;;;;;;2.22;0.85;;;21.20;31.10;;;;;;5056224;28;20013;-58
2022/01/05 06:40:31;;;;;;;2.15;0.70;;;21.20;31.10;;;;;;5038091;28;20470;-58
2022/01/05 06:42:59;;;;;;;2.78;1.02;;;21.20;31.10;;;;;;5056868;28;20029;-55
2022/01/05 06:45:25;;;;;;;2.10;0.77;;;21.20;31.10;;;;;;5055451;28;20020;-52
2022/01/05 06:47:50;;;;;;;2.70;0.65;;;21.20;31.10;;;;;;5056123;28;20035;-55
2022/01/05 06:50:16;;;;;;;1.50;0.93;;;21.20;31.10;;;;;;5038548;28;20029;-51
2022/01/05 06:52:42;;;;;;;2.55;1.10;;;21.20;31.10;;;;;;5038620;28;20104;-55
2022/01/05 06:55:09;;;;;;;1.40;0.80;;;21.20;31.10;;;;;;5056047;28;20028;-58
2022/01/05 06:57:37;;;;;;;3.30;1.17;;;21.20;31.10;;;;;;5055861;28;20021;-57
2022/01/05 07:00:04;;;;;;;2.15;0.85;;;21.20;31.10;;;;;;5055750;28;20491;-57
2022/01/05 07:02:30;;;;;;;3.90;1.40;;;21.20;31.70;;;;;;5055865;28;20086;-55
2022/01/05 07:04:55;;;;;;;2.22;0.90;;;21.20;31.10;;;;;;5055343;28;20111;-56
2022/01/05 07:07:21;;;;;;;1.38;0.60;;;21.20;31.10;;;;;;5037788;28;20033;-56
2022/01/05 07:09:47;;;;;;;3.15;1.00;;;21.20;31.10;;;;;;5055699;28;20032;-55
2022/01/05 07:12:13;;;;;;;1.33;0.70;;;21.20;31.00;;;;;;5055068;28;20025;-53
2022/01/05 07:14:39;;;;;;;2.67;0.75;;;21.20;31.00;;;;;;5055046;28;20051;-57
2022/01/05 07:17:05;;;;;;;3.00;0.82;;;21.20;31.10;;;;;;5055874;28;20128;-54
2022/01/05 07:19:30;;;;;;;2.05;0.70;;;21.20;31.10;;;;;;5037676;28;20594;-52
2022/01/05 07:21:56;;;;;;;1.77;1.00;;;21.20;31.10;;;;;;5055146;28;20033;-56
2022/01/05 07:24:22;;;;;;;3.13;0.90;;;21.20;31.10;;;;;;5055355;28;20082;-50
2022/01/05 07:26:48;;;;;;;3.63;0.90;;;21.20;31.10;;;;;;5054624;28;20033;-52
2022/01/05 07:29:19;;;;;;;2.05;0.70;;;21.20;31.00;;;;;;5055425;28;20055;-52
2022/01/05 07:31:46;;;;;;;2.22;0.68;;;21.30;31.00;;;;;;5054144;28;20056;-52
2022/01/05 07:34:14;;;;;;;3.10;1.17;;;21.30;31.00;;;;;;5055493;28;20456;-55
2022/01/05 07:36:40;;;;;;;2.55;0.90;;;21.30;31.00;;;;;;5055238;28;20028;-55
2022/01/05 07:39:07;;;;;;;2.97;0.90;;;21.20;30.90;;;;;;5055176;28;20041;-58
2022/01/05 07:41:33;;;;;;;3.03;1.10;;;21.30;31.00;;;;;;5053992;28;20029;-54
2022/01/05 07:43:59;;;;;;;3.65;1.13;;;21.30;31.30;;;;;;5055682;28;20412;-56
2022/01/05 07:46:25;;;;;;;3.22;0.90;;;21.20;30.90;;;;;;5054571;28;20048;-56
2022/01/05 07:48:51;;;;;;;4.18;1.33;;;21.30;30.90;;;;;;5055282;28;20035;-53
2022/01/05 07:51:16;;;;;;;5.22;1.27;;;21.20;30.90;;;;;;5054519;28;20013;-56
2022/01/05 07:53:42;;;;;;;5.32;1.70;;;21.20;31.00;;;;;;5055225;28;20013;-55
2022/01/05 07:56:08;;;;;;;4.35;1.67;;;21.20;31.20;;;;;;5053694;28;20119;-52
2022/01/05 07:58:35;;;;;;;4.18;1.70;;;21.20;31.40;;;;;;5053668;28;20055;-53
2022/01/05 08:01:03;;;;;;;4.18;1.63;;;21.20;31.70;;;;;;5053697;28;20312;-55
2022/01/05 08:03:32;;;;;;;5.22;1.77;;;21.30;31.90;;;;;;5054129;28;20032;-55
2022/01/05 08:06:03;;;;;;;5.80;1.65;;;21.30;32.00;;;;;;5053381;28;20021;-53
2022/01/05 08:08:30;;;;;;;5.53;1.60;;;21.40;32.00;;;;;;5054970;28;20036;-56
2022/01/05 08:10:56;;;;;;;5.25;1.45;;;21.50;31.90;;;;;;5052994;28;20454;-53
2022/01/05 08:13:25;;;;;;;5.45;1.90;;;21.60;31.90;;;;;;5053643;28;20021;-54
2022/01/05 08:15:52;;;;;;;5.97;1.98;;;21.70;31.80;;;;;;5052372;28;20021;-55
2022/01/05 08:18:18;;;;;;;3.78;1.70;;;21.70;32.10;;;;;;5054454;28;20025;-53
2022/01/05 08:20:44;;;;;;;5.30;2.13;;;21.80;31.70;;;;;;5055105;28;20246;-56
2022/01/05 08:23:14;;;;;;;5.07;1.90;;;21.90;31.70;;;;;;5054202;28;20017;-58
2022/01/05 08:25:40;;;;;;;4.43;1.40;;;22.00;31.70;;;;;;5053741;28;20017;-58
2022/01/05 08:28:08;;;;;;;4.10;1.58;;;22.10;31.60;;;;;;5037211;28;20338;-51
2022/01/05 08:30:35;;;;;;;3.95;1.55;;;22.10;31.50;;;;;;5055684;28;20103;-58
2022/01/05 08:33:03;;;;;;;6.65;1.50;;;22.20;31.50;;;;;;5054402;28;20087;-51
2022/01/05 08:35:29;;;;;;;6.00;1.67;;;22.30;31.50;;;;;;5045923;28;20475;-54
2022/01/05 08:37:55;;;;;;;4.07;1.67;;;22.40;31.50;;;;;;5038834;28;20020;-56
2022/01/05 08:40:23;;;;;;;5.43;1.83;;;22.50;31.50;;;;;;5044312;28;20114;-58
2022/01/05 08:42:49;;;;;;;5.22;1.75;;;22.50;31.40;;;;;;5048901;28;20029;-54
2022/01/05 08:45:16;;;;;;;2.97;1.42;;;22.60;31.30;;;;;;5046559;28;20024;-53
2022/01/05 08:47:47;;;;;;;4.03;1.83;;;22.60;31.30;;;;;;5049836;28;20459;-53
2022/01/05 08:50:17;;;;;;;5.05;2.03;;;22.70;31.20;;;;;;5054190;28;20082;-55
2022/01/05 08:52:44;;;;;;;5.35;1.58;;;22.80;31.20;;;;;;5053012;28;20025;-53
2022/01/05 08:55:11;;;;;;;4.65;1.70;;;22.90;31.20;;;;;;5053114;28;20127;-54
2022/01/05 08:57:38;;;;;;;3.00;1.30;;;22.90;31.10;;;;;;5053703;28;20047;-58
2022/01/05 09:00:05;;;;;;;4.20;1.42;;;23.00;31.70;;;;;;5052032;28;20033;-55
2022/01/05 09:02:31;;;;;;;4.53;1.80;;;23.10;31.10;;;;;;5052750;28;20056;-55
2022/01/05 09:04:57;;;;;;;4.32;1.60;;;23.10;31.00;;;;;;5052867;28;20328;-57
2022/01/05 09:07:22;;;;;;;3.72;1.42;;;23.20;30.90;;;;;;5053418;28;20347;-51
2022/01/05 09:09:48;;;;;;;3.85;1.58;;;23.20;30.90;;;;;;5053451;28;20120;-56
2022/01/05 09:12:14;;;;;;;3.45;1.38;;;23.30;30.90;;;;;;5053376;28;20020;-53
2022/01/05 09:14:40;;;;;;;3.97;1.25;;;23.30;30.80;;;;;;5053448;28;20094;-55
2022/01/05 09:17:07;;;;;;;2.95;1.17;;;23.40;30.80;;;;;;5053663;28;20036;-56
2022/01/05 09:19:33;;;;;;;3.55;1.20;;;23.40;30.80;;;;;;5052151;28;20029;-50
2022/01/05 09:21:59;;;;;;;3.20;1.25;;;23.50;30.80;;;;;;5053581;28;20025;-53
2022/01/05 09:24:25;;;;;;;3.63;1.35;;;23.50;30.70;;;;;;5053610;28;20020;-52
2022/01/05 09:26:52;;;;;;;2.83;0.95;;;23.60;30.70;;;;;;5053318;28;20036;-57
2022/01/05 09:29:18;;;;;;;3.25;1.23;;;23.60;30.60;;;;;;5052959;28;20174;-53
2022/01/05 09:31:44;;;;;;;3.67;1.25;;;23.60;30.60;;;;;;5053589;28;20025;-58
2022/01/05 09:34:10;;;;;;;2.38;0.90;;;23.70;30.60;;;;;;5035350;28;20043;-54
2022/01/05 09:36:42;;;;;;;4.18;1.40;;;23.70;31.20;;;;;;5052903;28;20025;-53
2022/01/05 09:42:05;;;;;;;;;;;23.80;30.50;;;;;;5053937;28;20025;-56
2022/01/05 09:44:42;;;;;;;3.20;1.40;;;23.80;30.50;;;;;;5053887;28;19905;-56
2022/01/05 09:47:10;;;;;;;2.78;0.90;;;23.90;30.60;;;;;;5053025;28;20028;-52
2022/01/05 09:49:46;;;;;;;3.53;1.30;;;23.90;30.60;;;;;;5052342;28;20042;-51
2022/01/05 09:52:13;;;;;;;2.58;1.02;;;23.90;30.50;;;;;;5056946;28;20043;-53
2022/01/05 09:54:42;;;;;;;3.38;1.10;;;24.00;30.60;;;;;;5056738;28;20025;-53
2022/01/05 09:57:09;;;;;;;3.13;1.15;;;24.00;30.50;;;;;;5057493;28;20029;-50
2022/01/05 09:59:36;;;;;;;2.90;1.13;;;24.00;30.50;;;;;;5056626;28;20059;-55
2022/01/05 10:02:04;;;;;;;2.63;1.08;;;24.00;30.50;;;;;;5056619;28;20013;-55
2022/01/05 10:04:32;;;;;;;1.42;0.68;;;24.10;30.60;;;;;;5057051;28;20056;-56
2022/01/05 10:06:57;;;;;;;3.20;1.30;;;24.10;31.20;;;;;;5056846;28;20027;-58
2022/01/05 10:09:23;;;;;;;3.60;1.25;;;24.10;30.50;;;;;;5056631;28;20327;-54
2022/01/05 10:11:49;;;;;;;1.63;0.85;;;24.10;30.60;;;;;;5056478;28;20028;-57
2022/01/05 10:14:16;;;;;;;2.90;1.02;;;24.10;30.60;;;;;;5056739;28;20051;-57
2022/01/05 10:16:58;;;;;;;2.88;1.02;;;24.10;30.60;;;;;;5056777;28;20028;-57
2022/01/05 10:19:25;;;;;;;3.22;1.02;;;24.10;30.60;;;;;;5035726;28;20040;-54
2022/01/05 10:21:51;;;;;;;3.65;1.17;;;24.10;30.60;;;;;;5056887;28;20078;-54
2022/01/05 10:24:46;;;;;;;3.47;1.20;;;24.10;30.60;;;;;;5056247;28;20027;-58
2022/01/05 10:27:18;;;;;;;2.92;1.25;;;24.10;30.50;;;;;;5050515;28;20028;-58
2022/01/05 10:29:55;;;;;;;2.00;0.95;;;24.10;30.60;;;;;;5038748;28;20100;-56
2022/01/05 10:32:22;;;;;;;2.65;1.08;;;24.10;30.60;;;;;;5056849;28;20020;-57
2022/01/05 10:35:01;;;;;;;1.85;0.90;;;24.10;30.60;;;;;;5055895;28;20428;-60
2022/01/05 10:37:27;;;;;;;2.67;1.17;;;24.10;30.60;;;;;;5056270;28;20063;-59
2022/01/05 10:40:04;;;;;;;2.83;1.10;;;24.00;30.60;;;;;;5056027;28;20060;-60
2022/01/05 10:42:32;;;;;;;2.78;0.93;;;24.00;30.60;;;;;;5056367;28;20142;-58
2022/01/05 10:44:59;;;;;;;3.20;1.05;;;24.00;30.70;;;;;;5055697;28;20436;-59
2022/01/05 10:47:25;;;;;;;3.53;1.25;;;24.00;30.70;;;;;;5055769;28;20083;-55
2022/01/05 10:49:52;;;;;;;2.55;1.02;;;24.00;30.70;;;;;;5056153;28;20087;-61
2022/01/05 10:52:21;;;;;;;3.13;1.20;;;24.00;30.70;;;;;;5056013;28;20108;-57
2022/01/05 10:54:49;;;;;;;2.28;1.00;;;23.90;30.70;;;;;;5056123;28;20037;-51
2022/01/05 10:57:17;;;;;;;2.50;1.13;;;23.90;30.80;;;;;;5054843;28;20029;-57
2022/01/05 10:59:45;;;;;;;2.67;1.15;;;23.90;30.80;;;;;;5055499;28;20029;-64
2022/01/05 11:02:32;;;;;;;1.92;1.10;;;23.80;31.40;;;;;;5055072;28;20351;-59
2022/01/05 11:05:01;;;;;;;2.90;0.98;;;23.90;30.80;;;;;;5056446;28;20025;-55
2022/01/05 11:07:29;;;;;;;3.00;1.00;;;23.90;30.90;;;;;;5055315;28;20151;-50
2022/01/05 11:09:58;;;;;;;4.22;1.02;;;23.80;31.00;;;;;;5055907;28;20036;-57
2022/01/05 11:12:35;;;;;;;3.78;0.90;;;23.80;30.90;;;;;;5054823;28;20327;-55
2022/01/05 11:15:26;;;;;;;3.13;1.00;;;23.80;31.00;;;;;;5046563;28;20108;-56
2022/01/05 11:18:14;;;;;;;3.92;1.65;;;23.80;30.90;;;;;;5036475;28;21721;-55
2022/01/05 11:20:51;;;;;;;3.00;1.27;;;23.70;30.90;;;;;;5054224;28;20479;-57
2022/01/05 11:23:22;;;;;;;4.57;1.33;;;23.70;31.00;;;;;;5055586;28;20087;-57
2022/01/05 11:25:49;;;;;;;4.13;1.58;;;23.70;31.00;;;;;;5054921;28;20029;-54
2022/01/05 11:28:17;;;;;;;3.47;1.30;;;23.60;31.70;;;;;;5055747;28;20436;-54
2022/01/05 11:30:45;;;;;;;2.92;1.00;;;23.60;31.00;;;;;;5054656;28;20156;-57
2022/01/05 11:33:12;;;;;;;2.03;0.93;;;23.60;31.00;;;;;;5055327;28;20025;-53
2022/01/05 11:35:39;;;;;;;2.60;1.02;;;23.60;31.10;;;;;;5054892;28;20398;-57
2022/01/05 11:38:05;;;;;;;2.83;1.27;;;23.60;31.10;;;;;;5054693;28;20107;-55
2022/01/05 11:40:40;;;;;;;2.10;0.90;;;23.60;31.20;;;;;;5055068;28;20040;-49
2022/01/05 11:43:11;;;;;;;2.05;1.08;;;23.60;31.30;;;;;;5055691;28;20123;-50
2022/01/05 11:45:47;;;;;;;1.95;0.80;;;23.60;31.40;;;;;;5056306;28;20029;-48
2022/01/05 11:48:26;;;;;;;2.53;1.05;;;23.60;31.60;;;;;;5048096;28;20348;-48
2022/01/05 11:50:59;;;;;;;2.33;0.98;;;23.60;31.70;;;;;;5043044;28;20074;-58
2022/01/05 11:53:40;;;;;;;2.35;0.98;;;23.70;31.80;;;;;;5032933;28;20108;-51
2022/01/05 11:56:23;;;;;;;5.07;1.10;;;23.80;31.80;;;;;;5048218;28;20087;-48
2022/01/05 11:58:53;;;;;;;1.95;0.70;;;23.80;31.90;;;;;;5047822;28;20029;-50
2022/01/05 12:01:22;;;;;;;2.40;0.98;;;23.90;31.90;;;;;;5055559;28;20079;-54
2022/01/05 12:03:57;;;;;;;2.20;1.08;;;23.90;31.90;;;;;;5052636;28;20078;-54
2022/01/05 12:06:25;;;;;;;2.50;0.77;;;24.10;31.80;;;;;;5029476;28;20450;-52
2022/01/05 12:08:53;;;;;;;2.83;0.90;;;24.10;31.80;;;;;;5054902;28;20032;-49
2022/01/05 12:11:42;;;;;;;3.28;0.82;;;24.10;31.80;;;;;;5045586;28;20471;-49
2022/01/05 12:14:28;;;;;;;1.73;0.75;;;24.20;31.90;;;;;;5035718;28;20037;-49
2022/01/05 12:17:02;;;;;;;2.08;0.60;;;24.30;32.00;;;;;;5048887;28;20036;-52
2022/01/05 12:19:30;;;;;;;1.73;0.70;;;24.40;32.00;;;;;;5036270;28;20034;-54
2022/01/05 12:21:59;;;;;;;2.35;0.93;;;24.40;32.00;;;;;;5054877;28;20028;-54
2022/01/05 12:24:53;;;;;;;2.08;0.80;;;24.40;32.00;;;;;;5056387;28;20033;-52
2022/01/05 12:27:30;;;;;;;1.77;0.60;;;24.50;32.00;;;;;;5037920;28;20037;-54
2022/01/05 12:29:55;;;;;;;2.08;0.98;;;24.60;32.00;;;;;;5044636;28;20025;-48
2022/01/05 12:32:36;;;;;;;1.38;0.70;;;24.60;32.10;;;;;;5053896;28;20035;-50
2022/01/05 12:35:27;;;;;;;1.42;0.77;;;24.60;32.00;;;;;;5052345;28;20020;-52
2022/01/05 12:38:06;;;;;;;2.13;0.75;;;24.70;32.00;;;;;;5053898;28;20017;-54
2022/01/05 12:40:50;;;;;;;2.72;1.00;;;24.70;32.00;;;;;;5052900;28;20081;-49
2022/01/05 12:43:18;;;;;;;1.70;0.63;;;24.70;31.80;;;;;;5053029;28;20024;-50
2022/01/05 12:45:54;;;;;;;1.58;0.70;;;24.70;31.80;;;;;;5053385;28;20052;-47
2022/01/05 12:48:36;;;;;;;1.40;0.63;;;24.70;31.70;;;;;;5046247;28;20072;-51
2022/01/05 12:51:23;;;;;;;2.22;0.95;;;24.70;31.50;;;;;;5036432;28;20020;-49
2022/01/05 12:54:02;;;;;;;1.95;0.88;;;24.80;31.50;;;;;;5037566;28;20086;-49